Time,TemperatureF,DewpointF,PressureIn,WindDirection,WindDirectionDegrees,WindSpeedMPH,WindSpeedGustMPH,Humidity,HourlyPrecipIn,Conditions,Clouds,dailyrainin,SoftwareType,DateUTC
2013-12-05 05:26:00,65.5,64.9,28.40,NNW,337,0.0,-999.0,98,-99.99,,,0.00,Acu-Link.com,2013-12-05 15:26:00,
2013-12-05 05:41:00,65.5,64.9,28.40,NNW,337,0.0,-999.0,98,-99.99,,,0.00,Acu-Link.com,2013-12-05 15:41:00,
2013-12-05 05:56:00,65.5,64.9,28.40,NNW,337,0.0,-999.0,98,-99.99,,,0.00,Acu-Link.com,2013-12-05 15:56:00,
2013-12-05 06:11:00,65.5,64.9,28.42,NNW,337,0.0,-999.0,98,-99.99,,,0.00,Acu-Link.com,2013-12-05 16:11:00,
2013-12-05 06:26:00,65.5,64.9,28.40,NNW,337,0.0,-999.0,98,-99.99,,,0.00,Acu-Link.com,2013-12-05 16:26:00,
2013-12-05 06:41:00,65.3,64.7,28.41,NNW,337,0.0,-999.0,98,-99.99,,,0.00,Acu-Link.com,2013-12-05 16:41:00,
2013-12-05 06:57:00,65.3,65.0,28.41,NNW,337,0.0,-999.0,99,-99.99,,,0.00,Acu-Link.com,2013-12-05 16:57:00,
2013-12-05 07:12:00,65.3,65.0,28.42,NNW,337,0.0,-999.0,99,-99.99,,,0.00,Acu-Link.com,2013-12-05 17:12:00,
2013-12-05 07:27:00,65.5,65.2,28.42,NNW,337,0.0,-999.0,99,-99.99,,,0.00,Acu-Link.com,2013-12-05 17:27:00,
2013-12-05 07:42:00,65.7,65.4,28.42,NNW,337,0.0,-999.0,99,-99.99,,,0.00,Acu-Link.com,2013-12-05 17:42:00,
2013-12-05 07:57:00,66.0,65.7,28.43,NNW,337,0.0,-999.0,99,-99.99,,,0.00,Acu-Link.com,2013-12-05 17:57:00,
2013-12-05 08:13:00,66.2,65.9,28.46,NNW,337,0.0,-999.0,99,-99.99,,,0.00,Acu-Link.com,2013-12-05 18:13:00,
2013-12-05 08:28:00,66.4,66.1,28.45,NNW,337,0.0,-999.0,99,-99.99,,,0.00,Acu-Link.com,2013-12-05 18:28:00,
2013-12-05 08:43:00,66.7,66.4,28.46,NNW,337,0.0,-999.0,99,-99.99,,,0.00,Acu-Link.com,2013-12-05 18:43:00,
2013-12-05 08:58:00,67.1,66.8,28.44,NNW,337,0.0,-999.0,99,-99.99,,,0.00,Acu-Link.com,2013-12-05 18:58:00,
2013-12-05 09:13:00,67.6,67.3,28.44,NNW,337,0.0,-999.0,99,-99.99,,,0.00,Acu-Link.com,2013-12-05 19:13:00,
2013-12-05 09:29:00,68.5,68.2,28.44,WSW,247,0.0,-999.0,99,-99.99,,,0.00,Acu-Link.com,2013-12-05 19:29:00,
2013-12-05 09:44:00,70.2,67.4,28.44,West,270,0.0,-999.0,91,-99.99,,,0.00,Acu-Link.com,2013-12-05 19:44:00,
2013-12-05 09:59:00,70.9,68.5,28.44,South,180,0.0,-999.0,92,-99.99,,,0.00,Acu-Link.com,2013-12-05 19:59:00,
2013-12-05 10:14:00,71.4,67.3,28.44,South,180,0.0,-999.0,87,-99.99,,,0.00,Acu-Link.com,2013-12-05 20:14:00,
2013-12-05 10:29:00,72.7,67.6,28.44,ENE,67,0.0,-999.0,84,-99.99,,,0.00,Acu-Link.com,2013-12-05 20:29:00,
2013-12-05 10:44:00,73.9,67.3,28.43,South,180,1.1,-999.0,80,-99.99,,,0.00,Acu-Link.com,2013-12-05 20:44:00,
2013-12-05 11:00:00,76.3,67.0,28.42,South,180,0.0,-999.0,73,-99.99,,,0.00,Acu-Link.com,2013-12-05 21:00:00,
2013-12-05 11:15:00,77.4,68.0,28.41,SSE,157,0.0,-999.0,73,-99.99,,,0.00,Acu-Link.com,2013-12-05 21:15:00,
2013-12-05 11:30:00,78.3,67.3,28.42,West,270,1.7,-999.0,69,-99.99,,,0.00,Acu-Link.com,2013-12-05 21:30:00,
2013-12-05 11:45:00,80.1,67.3,28.39,South,180,2.2,-999.0,65,-99.99,,,0.00,Acu-Link.com,2013-12-05 21:45:00,
2013-12-05 13:56:00,83.5,68.1,28.34,SE,135,2.2,-999.0,60,-99.99,,,0.00,Acu-Link.com,2013-12-05 23:56:00,
2013-12-05 14:11:00,84.0,68.6,28.32,West,270,2.2,-999.0,60,-99.99,,,0.00,Acu-Link.com,2013-12-06 00:11:00,
2013-12-05 14:26:00,82.8,67.9,28.33,SE,135,2.7,-999.0,61,-99.99,,,0.00,Acu-Link.com,2013-12-06 00:26:00,
2013-12-05 14:41:00,82.9,68.0,28.32,SE,135,1.7,-999.0,61,-99.99,,,0.00,Acu-Link.com,2013-12-06 00:41:00,
2013-12-05 14:57:00,80.2,67.3,28.32,South,180,2.7,-999.0,65,-99.99,,,0.00,Acu-Link.com,2013-12-06 00:57:00,
2013-12-05 15:12:00,80.4,67.5,28.32,SSE,157,1.7,-999.0,65,-99.99,,,0.00,Acu-Link.com,2013-12-06 01:12:00,
2013-12-05 15:27:00,79.7,67.8,28.35,SSE,157,0.0,-999.0,67,-99.99,,,0.00,Acu-Link.com,2013-12-06 01:27:00,
2013-12-05 15:42:00,79.5,68.0,28.34,SSE,157,0.0,-999.0,68,-99.99,,,0.00,Acu-Link.com,2013-12-06 01:42:00,
2013-12-05 15:58:00,77.7,67.5,28.34,SSE,157,0.0,-999.0,71,-99.99,,,0.00,Acu-Link.com,2013-12-06 01:58:00,
2013-12-05 16:13:00,77.9,67.7,28.33,South,180,0.0,-999.0,71,-99.99,,,0.00,Acu-Link.com,2013-12-06 02:13:00,
2013-12-05 16:28:00,79.2,68.1,28.33,South,180,0.0,-999.0,69,-99.99,,,0.00,Acu-Link.com,2013-12-06 02:28:00,
2013-12-05 16:43:00,78.8,67.7,28.34,South,180,0.0,-999.0,69,-99.99,,,0.00,Acu-Link.com,2013-12-06 02:43:00,
2013-12-05 16:58:00,77.7,68.7,28.34,South,180,0.0,-999.0,74,-99.99,,,0.00,Acu-Link.com,2013-12-06 02:58:00,
2013-12-05 17:13:00,76.8,69.0,28.35,South,180,0.0,-999.0,77,-99.99,,,0.00,Acu-Link.com,2013-12-06 03:13:00,
2013-12-05 17:29:00,75.6,68.2,28.36,South,180,0.0,-999.0,78,-99.99,,,0.00,Acu-Link.com,2013-12-06 03:29:00,
2013-12-05 17:44:00,74.5,68.3,28.35,South,180,0.0,-999.0,81,-99.99,,,0.00,Acu-Link.com,2013-12-06 03:44:00,
2013-12-05 17:59:00,73.6,68.5,28.39,South,180,0.0,-999.0,84,-99.99,,,0.00,Acu-Link.com,2013-12-06 03:59:00,
2013-12-05 18:14:00,72.7,68.3,28.37,South,180,0.0,-999.0,86,-99.99,,,0.00,Acu-Link.com,2013-12-06 04:14:00,
2013-12-05 18:29:00,71.8,67.7,28.39,South,180,0.0,-999.0,87,-99.99,,,0.00,Acu-Link.com,2013-12-06 04:29:00,
2013-12-05 20:20:00,68.9,66.2,28.43,NNE,22,0.0,-999.0,91,-99.99,,,0.00,Acu-Link.com,2013-12-06 06:20:00,
2013-12-05 20:36:00,68.5,66.1,28.42,NNE,22,0.0,-999.0,92,-99.99,,,0.00,Acu-Link.com,2013-12-06 06:36:00,
2013-12-05 20:51:00,68.5,66.4,28.42,NNE,22,0.0,-999.0,93,-99.99,,,0.00,Acu-Link.com,2013-12-06 06:51:00,
2013-12-05 21:06:00,68.7,66.6,28.44,NNE,22,0.0,-999.0,93,-99.99,,,0.00,Acu-Link.com,2013-12-06 07:06:00,
2013-12-05 21:21:00,68.7,66.6,28.44,NNE,22,0.0,-999.0,93,-99.99,,,0.00,Acu-Link.com,2013-12-06 07:21:00,
2013-12-05 21:37:00,68.9,66.8,28.45,NNE,22,0.0,-999.0,93,-99.99,,,0.00,Acu-Link.com,2013-12-06 07:37:00,
2013-12-05 21:52:00,68.7,66.3,28.43,NNE,22,0.0,-999.0,92,-99.99,,,0.00,Acu-Link.com,2013-12-06 07:52:00,
2013-12-05 22:07:00,68.4,66.3,28.45,NNE,22,0.0,-999.0,93,-99.99,,,0.00,Acu-Link.com,2013-12-06 08:07:00,
2013-12-05 22:22:00,68.2,66.4,28.44,NNE,22,0.0,-999.0,94,-99.99,,,0.00,Acu-Link.com,2013-12-06 08:22:00,